AirNav   Pilot Hours Calculator
 
 480 users online  

1CL0 William Archibald Heliport
San Dimas, California, USA

GOING TO SAN DIMAS?


FAA INFORMATION EFFECTIVE 03 DECEMBER 2020

Location

FAA Identifier: 1CL0
Lat/Long: 34-06-16.8100N 117-47-59.0100W
34-06.280167N 117-47.983500W
34.1046694,-117.7997250
(estimated)
Elevation: 984 ft. / 300 m (estimated)
Variation: 14E (1985)
Time zone: UTC -8 (UTC -7 during Daylight Saving Time)
Zip code: 91773

Heliport Operations

Heliport use: Private use. Permission required prior to landing
Activation date: 10/1987
Control tower: no
ARTCC: LOS ANGELES CENTER
FSS: RIVERSIDE FLIGHT SERVICE STATION
Attendance: UNATNDD
Wind indicator: yes
Segmented circle: no
Lights: FOR PERIMETER LGTS CALL 909-599-1267.

Heliport Communications

WX AWOS-3PT at POC (1.2 nm SE): 124.4 (909-596-1523)
WX AWOS-3P at CCB (6 nm E): 119.525 (909-985-4731)
WX ASOS at ONT (10 nm E): PHONE 909-937-2186
WX ASOS at CNO (11 nm SE): PHONE 909-393-5823
WX AWOS-3PT at EMT (12 nm W): 118.75 ((626) 444-1107)
WX AWOS-3PT at AJO (16 nm SE): 132.175 (951-340-4764)
WX ASOS at FUL (17 nm SW): PHONE 714-870-1372
WX ASOS at RAL (20 nm SE): 128.8 (951-352-4392)

Nearby radio navigation aids

VOR radial/distance  VOR name  Freq  Var
POMr323/1.7POMONA VORTAC110.4015E
PDZr295/17.5PARADISE VORTAC112.2015E
RALr283/(19.6)RIVERSIDE VOR112.4014E
SLIr018/23.1SEAL BEACH VORTAC115.7015E
ELBr338/25.9EL TORO VOR/DME117.2014E
LAXr057/33.1LOS ANGELES VORTAC113.6015E
SMOr065/33.1SANTA MONICA VOR/DME110.8015E
PMDr143/34.2PALMDALE VORTAC114.5015E
VNYr087/35.1VAN NUYS VOR/DME113.1015E
VCVr201/35.7VICTORVILLE VOR/DME109.0514E
HDFr289/(36.4)HOMELAND VOR113.4014E

Heliport Services

Runway Information

Helipad H1

Dimensions: 100 x 100 ft. / 30 x 30 m
Surface: asphalt
Runway edge lights: PERI
Latitude: 34-06.280167N
Longitude: 117-47.983500W
Elevation: 984.0 ft.
Traffic pattern: leftleft

Heliport Ownership and Management from official FAA records

Ownership: Privately-owned
Owner: US FOREST SERVICE
444 E. BONITA AVE.
SAN DIMAS, CA 91773
Phone 909-599-1267
Manager: CARL BAMBARGER
444 E. BONITA AVE.
SAN DIMAS, CA 91773
Phone (909) 929-7048
RYAN BECKER

Additional Remarks

ALL ACFT CONTACT BRACKETT TWR PRIOR TO ENTERING BRACKETT ATA & PRIOR TO DEPARTING WILLIAM ARCHIBALD.
FOR CD CTC LOS ANGELES ARTCC AT 661-575-2079.

Instrument Procedures

There are no published instrument procedures at 1CL0.

Some nearby airports with instrument procedures:

KPOC - Brackett Field Airport (1 nm SE)
KCCB - Cable Airport (6 nm E)
KONT - Ontario International Airport (10 nm E)
KCNO - Chino Airport (11 nm SE)
KEMT - San Gabriel Valley Airport (12 nm W)
KAJO - Corona Municipal Airport (16 nm SE)
KFUL - Fullerton Municipal Airport (17 nm SW)
KRAL - Riverside Municipal Airport (20 nm SE)
 
Loc | Ops | Rwys | IFR | FBO | Links
Com | Nav | Svcs | Stats | Notes

San Bernardino International Airport Authority
 
Area around 1CL0 (William Archibald Heliport)
 
Road maps at: MapQuest Bing Google
 
Aerial photo
No photo
 
Sectional chart

 
Airport distance calculator
Flying to William Archibald Heliport? Find the distance to fly.

From to 1CL0

Sunrise and sunset
Times for 03-Dec-2020
 Local
(UTC-8)
 Zulu
(UTC)
Morning civil twilight06:1514:15
Sunrise06:4214:42
Sunset16:4100:41
Evening civil twilight17:0801:08

Current date and time
Zulu (UTC)  03-Dec-2020 11:53:55
Local (UTC-8)  03-Dec-2020 03:53:55
 
METAR
KPOC 
2nm E 
022347Z 25007KT 10SM CLR 25/M07 A3003
KCCB 
6nm E 
119.525 909-985-4731
031135Z AUTO 30005KT 8SM CLR 12/M13 A3014 RMK AO2
KEMT 
11nm W 
030356Z 00000KT 10SM CLR 14/07 A3009
KONT 
11nm E 
031053Z 05021G30KT 10SM SCT250 16/M19 A3014 RMK AO2 PK WND 07034/1009 SLP196 T01611194
KCNO 
12nm SE 
031053Z 07018G32KT 9SM CLR 18/M17 A3018 RMK AO2 PK WND 07032/1053 SLP213 T01831167
KAJO 
16nm SE 
031056Z AUTO 09008G14KT 10SM CLR 15/M13 A3020 RMK AO2 SLP221 T01501128
KFUL 
17nm SW 
031053Z AUTO 08016G20KT 10SM CLR 19/M16 A3014 RMK AO2 SLP207 T01941161
KRAL 
20nm SE 
031053Z AUTO VRB04KT 10SM CLR 13/M14 A3020 RMK AO2 SLP215 T01331144
TAF
KONT 
11nm E 
030520Z 0306/0412 05022G34KT P6SM SCT250 TEMPO 0306/0308 05032G48KT FM031800 04012G22KT P6SM SKC FM040000 04007KT P6SM SKC
NOTAMs
Click for the latest NOTAMs
NOTAMs are issued by the DoD/FAA and will open in a separate window not controlled by AirNav.

 

 
 

Would you like to see your business listed on this page?

 If your business provides an interesting product or service to pilots, flight crews, aircraft, or users of the William Archibald Heliport, you should consider listing it here.  To start the listing process, click on the button below
 
Add a business
 

Other Pages about William Archibald Heliport

Update a link
 
Copyright © AirNav, LLC. All rights reserved. Privacy Policy  Contact